^^
Station Historical Data
 
Daily Summary for April 25, 2019 Units:  Metric    English   Both
« Previous Day
Next Day »
Daily Weekly Monthly Yearly Custom
  Current: High: Low: Average:
Temperature: 16.6 °C -17.8 °C 7.1 °C 9.3 °C
Dew Point: 11.7 °C -17.8 °C 6.2 °C 7.8 °C
Humidity: 73% Humidity% 73% 89%
Wind Speed: 8km/h 0km/h 0km/h 1.4km/h
Wind Gust: 11.3km/h 0km/h - -
WindNE - - SE
Pressure: 1024.3 hPa 0 hPa 1022.9 hPa -
Precipitation: 0 mm      
Historical Graphs
 
 
Tabular Data for April 25, 2019
Time Temperature Dew Point Pressure Wind Wind Speed Wind Gust Humidity Rainfall Rate (Hourly) solar Conditions
-17.8 °C -17.8 °C 0 hPa Calm     Humidity% 0 mm SolarRadiationWatts/m^2 W/m2 Conditions
00:00 10.9 °C 9.2 °C 1023.2 hPa WSW 1.6 km/h 3.2 km/h 89% 0 mm 0.00 W/m2 RA
00:10 10.8 °C 9.1 °C 1022.9 hPa Calm   3.2 km/h 89% 0 mm 0.00 W/m2 RA
00:20 10.6 °C 8.9 °C 1023.2 hPa West 1.6 km/h 1.6 km/h 89% 0 mm 0.00 W/m2 CLR
00:30 10.5 °C 8.9 °C 1023.2 hPa Calm   3.2 km/h 90% 0 mm 0.00 W/m2 CLR
00:40 10.4 °C 8.8 °C 1023.6 hPa West 1.6 km/h 3.2 km/h 90% 0 mm 0.00 W/m2 CLR
00:50 10.3 °C 8.7 °C 1023.6 hPa Calm   3.2 km/h 90% 0 mm 0.00 W/m2 CLR
01:00 10.2 °C 8.6 °C 1023.6 hPa WNW 3.2 km/h 8 km/h 90% 0 mm 0.00 W/m2 CLR
01:10 10.2 °C 8.6 °C 1023.6 hPa Calm   9.7 km/h 90% 0 mm 0.00 W/m2 CLR
01:20 10.1 °C 8.4 °C 1023.6 hPa East 4.8 km/h 8 km/h 90% 0 mm 0.00 W/m2 CLR
01:30 9.8 °C 8.4 °C 1023.6 hPa Calm   8 km/h 91% 0 mm 0.00 W/m2 CLR
01:40 9.8 °C 8.2 °C 1023.6 hPa Calm     90% 0 mm 0.00 W/m2 CLR
01:50 9.6 °C 8.2 °C 1023.6 hPa Calm     91% 0 mm 0.00 W/m2 CLR
02:00 9.6 °C 8.2 °C 1023.6 hPa NE 1.6 km/h 3.2 km/h 91% 0 mm 0.00 W/m2 CLR
02:10 9.4 °C 8.3 °C 1023.6 hPa Calm   3.2 km/h 93% 0 mm 0.00 W/m2 CLR
02:20 9.3 °C 8.1 °C 1023.6 hPa SSE 1.6 km/h 3.2 km/h 92% 0 mm 0.00 W/m2 CLR
02:30 9.2 °C 7.8 °C 1023.9 hPa SW 1.6 km/h 3.2 km/h 91% 0 mm 0.00 W/m2 CLR
02:40 9.1 °C 8 °C 1023.9 hPa Calm   3.2 km/h 93% 0 mm 0.00 W/m2 CLR
02:50 9 °C 7.9 °C 1023.9 hPa Calm     93% 0 mm 0.00 W/m2 CLR
03:00 8.9 °C 7.8 °C 1023.9 hPa SSW 3.2 km/h 4.8 km/h 93% 0 mm 0.00 W/m2 CLR
03:10 8.7 °C 7.6 °C 1023.9 hPa South 1.6 km/h 8 km/h 93% 0 mm 0.00 W/m2 CLR
03:20 8.6 °C 7.6 °C 1023.9 hPa Calm   3.2 km/h 93% 0 mm 0.00 W/m2 CLR
03:30 8.4 °C 7.4 °C 1024.3 hPa SSW 1.6 km/h 3.2 km/h 93% 0 mm 0.00 W/m2 CLR
03:40 8.3 °C 7.2 °C 1024.3 hPa SSW 1.6 km/h 4.8 km/h 93% 0 mm 0.00 W/m2 CLR
03:50 8.2 °C 7.3 °C 1024.3 hPa SSW 1.6 km/h 4.8 km/h 94% 0 mm 0.00 W/m2 CLR
04:00 8.1 °C 7.2 °C 1024.3 hPa Calm   3.2 km/h 94% 0 mm 0.00 W/m2 CLR
04:10 8.1 °C 7.2 °C 1024.3 hPa Calm   3.2 km/h 94% 0 mm 0.00 W/m2 CLR
04:20 8.1 °C 7.2 °C 1023.9 hPa Calm     94% 0 mm 0.00 W/m2 CLR
04:30 7.9 °C 7 °C 1024.3 hPa ENE 1.6 km/h 3.2 km/h 94% 0 mm 0.00 W/m2 CLR
04:40 7.9 °C 7 °C 1024.3 hPa Calm   3.2 km/h 94% 0 mm 0.00 W/m2 CLR
04:50 7.8 °C 7.1 °C 1024.3 hPa Calm     95% 0 mm 0.00 W/m2 CLR
05:00 7.8 °C 7.1 °C 1023.9 hPa SW 1.6 km/h 3.2 km/h 95% 0 mm 0.00 W/m2 CLR
05:10 7.7 °C 6.8 °C 1024.3 hPa SW 3.2 km/h 4.8 km/h 94% 0 mm 0.00 W/m2 OVC
05:20 7.4 °C 6.5 °C 1024.3 hPa WNW 1.6 km/h 4.8 km/h 94% 0 mm 0.00 W/m2 OVC
05:30 7.4 °C 6.5 °C 1024.3 hPa Calm   3.2 km/h 94% 0 mm 2.00 W/m2 OVC
05:40 7.3 °C 6.4 °C 1024.3 hPa Calm   3.2 km/h 94% 0 mm 6.00 W/m2 SCT
05:50 7.2 °C 6.3 °C 1024.3 hPa Calm     94% 0 mm 15.00 W/m2 SCT
06:00 7.1 °C 6.2 °C 1024.3 hPa Calm     94% 0 mm 28.00 W/m2 SCT
06:10 7.2 °C 6.4 °C 1024.6 hPa Calm     95% 0 mm 45.00 W/m2 SCT
06:20 7.2 °C 6.4 °C 1024.6 hPa WSW 1.6 km/h 3.2 km/h 95% 0 mm 54.00 W/m2 SCT
06:30 7.2 °C 6.4 °C 1024.6 hPa Calm   1.6 km/h 95% 0 mm 58.00 W/m2 BKN
06:40 7.3 °C 6.6 °C 1024.6 hPa Calm   3.2 km/h 95% 0 mm 56.00 W/m2 BKN
06:50 7.4 °C 6.7 °C 1024.9 hPa WNW 1.6 km/h 3.2 km/h 95% 0 mm 74.00 W/m2 BKN
07:00 7.5 °C 6.9 °C 1024.9 hPa Calm   3.2 km/h 96% 0 mm 114.00 W/m2 SCT
07:10 7.7 °C 6.9 °C 1024.9 hPa Calm   3.2 km/h 95% 0 mm 161.00 W/m2 SCT
07:20 7.8 °C 7.2 °C 1024.9 hPa Calm   1.6 km/h 96% 0 mm 191.00 W/m2 FEW
07:30 8.1 °C 7.5 °C 1024.9 hPa Calm   3.2 km/h 96% 0 mm 207.00 W/m2 SCT
07:40 8.5 °C 7.9 °C 1024.9 hPa Calm   3.2 km/h 96% 0 mm 219.00 W/m2 SCT
07:50 8.8 °C 8.1 °C 1024.9 hPa Calm   4.8 km/h 95% 0 mm 282.00 W/m2 FEW
08:00 9.2 °C 8.4 °C 1024.9 hPa SSW 1.6 km/h 3.2 km/h 95% 0 mm 305.00 W/m2 FEW
08:10 9.5 °C 8.6 °C 1024.9 hPa North 3.2 km/h 12.9 km/h 94% 0 mm 329.00 W/m2 FEW
08:20 10.1 °C 8.7 °C 1025.3 hPa NE 4.8 km/h 12.9 km/h 91% 0 mm 360.00 W/m2 FEW
08:30 10.4 °C 8.8 °C 1024.9 hPa NE 3.2 km/h 8 km/h 90% 0 mm 366.00 W/m2 FEW
08:40 10.8 °C 9.2 °C 1024.9 hPa NNE 1.6 km/h 9.7 km/h 90% 0 mm 316.00 W/m2 SCT
08:50 11.3 °C 9.6 °C 1024.9 hPa NNE 1.6 km/h 9.7 km/h 89% 0 mm 452.00 W/m2 FEW
09:00 11.9 °C 9.7 °C 1024.9 hPa NNE 3.2 km/h 11.3 km/h 86% 0 mm 461.00 W/m2 FEW
09:10 12.6 °C 10.2 °C 1024.9 hPa NE 3.2 km/h 11.3 km/h 85% 0 mm 508.00 W/m2 FEW
09:20 13.2 °C 10.4 °C 1024.9 hPa East 3.2 km/h 16.1 km/h 83% 0 mm 536.00 W/m2 CLR
09:30 13.8 °C 10.4 °C 1024.9 hPa ENE 3.2 km/h 9.7 km/h 80% 0 mm 548.00 W/m2 FEW
09:40 14.2 °C 10.6 °C 1024.9 hPa NE 3.2 km/h 12.9 km/h 79% 0 mm 572.00 W/m2 FEW
09:50 14.7 °C 10.9 °C 1024.6 hPa NE 3.2 km/h 12.9 km/h 78% 0 mm 229.00 W/m2 OVC
10:00 15.2 °C 11.4 °C 1024.6 hPa NE 1.6 km/h 9.7 km/h 78% 0 mm 237.00 W/m2 OVC
10:10 15.6 °C 11 °C 1024.6 hPa ENE 3.2 km/h 12.9 km/h 74% 0 mm 647.00 W/m2 CLR
10:20 16.1 °C 11.4 °C 1024.6 hPa NNE 4.8 km/h 14.5 km/h 74% 0 mm 676.00 W/m2 CLR
10:30 16.6 °C 11.7 °C 1024.3 hPa NE 8 km/h 11.3 km/h 73% 0 mm 696.00 W/m2 CLR
Knjazevac Weather
Compliments of Weather Underground - 2 mb